createdAt,value
2019-05-10T00:00:12.776Z,18.12
2019-05-10T00:03:00.810Z,23.70
2019-05-10T00:05:48.651Z,19.42
2019-05-10T00:08:36.337Z,22.60
2019-05-10T00:11:08.317Z,19.57
2019-05-10T00:13:47.556Z,23.67
2019-05-10T00:16:17.191Z,23.35
2019-05-10T00:18:46.707Z,19.95
2019-05-10T00:21:16.277Z,16.80
2019-05-10T00:23:45.737Z,23.95
2019-05-10T00:26:15.195Z,21.73
2019-05-10T00:28:44.779Z,26.15
2019-05-10T00:31:14.305Z,25.80
2019-05-10T00:33:43.940Z,22.33
2019-05-10T00:36:15.749Z,18.32
2019-05-10T00:38:45.261Z,25.17
2019-05-10T00:41:14.719Z,18.60
2019-05-10T00:43:44.289Z,23.57
2019-05-10T00:46:13.829Z,17.48
2019-05-10T00:48:43.392Z,23.32
2019-05-10T00:51:12.863Z,27.42
2019-05-10T00:53:42.375Z,24.87
2019-05-10T00:56:12.115Z,19.02
2019-05-10T00:58:41.614Z,25.72
2019-05-10T01:01:11.147Z,27.75
2019-05-10T01:03:40.665Z,30.10
2019-05-10T01:06:10.140Z,26.20
2019-05-10T01:08:39.690Z,30.45
2019-05-10T01:11:12.150Z,31.52
2019-05-10T01:13:41.684Z,36.03
2019-05-10T01:16:11.218Z,30.17
2019-05-10T01:18:40.744Z,34.30
2019-05-10T01:21:10.207Z,36.58
2019-05-10T01:23:39.805Z,35.20
2019-05-10T01:26:09.233Z,31.75
2019-05-10T01:28:38.742Z,36.85
2019-05-10T01:31:08.224Z,32.67
2019-05-10T01:33:37.775Z,30.43
2019-05-10T01:36:07.241Z,37.20
2019-05-10T01:38:36.747Z,26.25
2019-05-10T01:41:07.400Z,34.30
2019-05-10T01:43:37.056Z,33.87
2019-05-10T01:46:06.556Z,38.58
2019-05-10T01:48:36.070Z,43.50
2019-05-10T01:51:05.594Z,37.60
2019-05-10T01:53:35.132Z,40.37
2019-05-10T01:56:04.758Z,49.40
2019-05-10T01:58:34.268Z,46.07
2019-05-10T02:01:03.869Z,48.95
2019-05-10T02:03:33.803Z,52.80
2019-05-10T02:06:03.344Z,55.28
2019-05-10T02:08:33.073Z,58.30
2019-05-10T02:11:02.762Z,52.17
2019-05-10T02:13:32.378Z,55.40
2019-05-10T02:16:01.871Z,57.17
2019-05-10T02:18:32.416Z,58.55
2019-05-10T02:21:02.068Z,55.17
2019-05-10T02:23:31.524Z,53.87
2019-05-10T02:26:09.486Z,53.90
2019-05-10T02:28:34.930Z,45.03
2019-05-10T02:31:04.573Z,48.80
2019-05-10T02:33:34.116Z,43.67
2019-05-10T02:36:03.642Z,45.08
2019-05-10T02:38:33.133Z,38.87
2019-05-10T02:41:02.702Z,40.85
2019-05-10T02:43:32.326Z,37.00
2019-05-10T02:46:01.965Z,40.67
2019-05-10T02:48:31.793Z,36.23
2019-05-10T02:51:01.229Z,33.70
2019-05-10T02:53:30.981Z,35.48
2019-05-10T02:56:02.304Z,35.45
2019-05-10T02:58:33.641Z,40.20
2019-05-10T03:01:05.122Z,32.28
2019-05-10T03:03:37.942Z,33.45
2019-05-10T03:06:07.459Z,27.60
2019-05-10T03:08:48.462Z,27.07
2019-05-10T03:11:18.479Z,30.10
2019-05-10T03:13:50.387Z,25.70
2019-05-10T03:16:22.447Z,23.60
2019-05-10T03:18:53.543Z,27.40
2019-05-10T03:21:25.880Z,30.65
2019-05-10T03:23:55.428Z,27.42
2019-05-10T03:26:28.587Z,30.00
2019-05-10T03:28:58.160Z,29.77
2019-05-10T03:31:27.762Z,30.00
2019-05-10T03:33:58.026Z,34.27
2019-05-10T03:36:27.605Z,41.77
2019-05-10T03:38:57.166Z,36.63
2019-05-10T03:41:26.759Z,32.98
2019-05-10T03:43:59.483Z,31.15
2019-05-10T03:46:29.058Z,36.83
2019-05-10T03:48:58.593Z,31.07
2019-05-10T03:51:28.066Z,34.03
2019-05-10T03:53:57.630Z,27.98
2019-05-10T03:56:29.816Z,27.87
2019-05-10T03:58:58.252Z,29.65
2019-05-10T04:01:27.922Z,28.57
2019-05-10T04:03:57.978Z,31.30
2019-05-10T04:06:27.457Z,33.35
2019-05-10T04:08:57.010Z,31.40
2019-05-10T04:11:26.429Z,32.48
2019-05-10T04:13:58.875Z,28.70
2019-05-10T04:16:29.814Z,27.17
2019-05-10T04:19:00.282Z,29.70
2019-05-10T04:21:29.888Z,29.02
2019-05-10T04:23:59.403Z,27.93
2019-05-10T04:26:28.924Z,27.15
2019-05-10T04:28:58.608Z,27.42
2019-05-10T04:31:28.116Z,28.05
2019-05-10T04:33:57.643Z,22.62
2019-05-10T04:36:27.806Z,26.42
2019-05-10T04:38:57.375Z,33.75
2019-05-10T04:41:26.864Z,24.43
2019-05-10T04:43:56.869Z,24.95
2019-05-10T04:46:26.396Z,25.43
2019-05-10T04:48:58.227Z,22.80
2019-05-10T04:51:27.710Z,27.80
2019-05-10T04:53:57.269Z,20.20
2019-05-10T04:56:26.814Z,26.60
2019-05-10T04:58:56.390Z,20.65
2019-05-10T05:01:25.871Z,26.90
2019-05-10T05:03:56.964Z,22.75
2019-05-10T05:06:26.441Z,22.35
2019-05-10T05:08:56.048Z,22.70
2019-05-10T05:11:25.757Z,22.10
2019-05-10T05:13:57.008Z,24.02
2019-05-10T05:16:26.555Z,25.68
2019-05-10T05:18:57.214Z,21.17
2019-05-10T05:21:26.652Z,22.80
2019-05-10T05:23:56.226Z,22.87
2019-05-10T05:26:25.935Z,25.02
2019-05-10T05:28:55.599Z,24.23
2019-05-10T05:31:25.879Z,24.48
2019-05-10T05:33:59.141Z,21.87
2019-05-10T05:36:26.622Z,16.00
2019-05-10T05:38:57.721Z,20.75
2019-05-10T05:41:27.293Z,17.37
2019-05-10T05:43:56.765Z,19.52
2019-05-10T05:46:26.215Z,18.80
2019-05-10T05:48:55.913Z,16.62
2019-05-10T05:51:25.806Z,19.44
2019-05-10T05:53:56.747Z,22.73
2019-05-10T05:58:54.887Z,19.00
2019-05-10T06:01:28.791Z,10.70
2019-05-10T06:04:00.036Z,19.37
2019-05-10T06:06:26.715Z,18.15
2019-05-10T06:08:59.573Z,14.30
2019-05-10T06:11:35.352Z,17.27
2019-05-10T06:14:03.651Z,13.38
2019-05-10T06:16:32.197Z,16.97
2019-05-10T06:19:01.685Z,16.57
2019-05-10T06:21:31.197Z,16.27
2019-05-10T06:24:00.623Z,15.23
2019-05-10T06:26:30.135Z,13.08
2019-05-10T06:29:04.183Z,12.68
2019-05-10T06:31:31.187Z,16.67
2019-05-10T06:34:00.674Z,18.67
2019-05-10T06:36:30.215Z,13.50
2019-05-10T06:39:00.516Z,16.30
2019-05-10T06:41:32.550Z,20.77
2019-05-10T06:44:01.191Z,15.18
2019-05-10T06:46:32.622Z,13.63
2019-05-10T06:49:08.292Z,17.65
2019-05-10T06:51:34.259Z,14.07
2019-05-10T06:54:05.347Z,12.15
2019-05-10T06:56:34.840Z,16.65
2019-05-10T06:59:13.659Z,16.07
2019-05-10T07:01:38.329Z,15.60
2019-05-10T07:04:08.156Z,13.32
2019-05-10T07:06:38.352Z,12.40
2019-05-10T07:09:08.103Z,12.90
2019-05-10T07:11:37.593Z,11.40
2019-05-10T07:14:07.125Z,18.98
2019-05-10T07:16:36.644Z,15.17
2019-05-10T07:19:06.178Z,15.43
2019-05-10T07:21:39.083Z,12.93
2019-05-10T07:24:06.988Z,9.90
2019-05-10T07:26:36.489Z,16.50
2019-05-10T07:29:05.996Z,15.93
2019-05-10T07:31:35.472Z,11.40
2019-05-10T07:34:09.673Z,21.25
2019-05-10T07:36:36.244Z,19.27
2019-05-10T07:39:08.297Z,13.32
2019-05-10T07:41:37.950Z,11.93
2019-05-10T07:44:10.302Z,15.15
2019-05-10T07:46:40.210Z,10.93
2019-05-10T07:49:11.212Z,18.27
2019-05-10T07:51:40.706Z,13.08
2019-05-10T07:54:10.208Z,10.75
2019-05-10T07:56:45.684Z,14.07
2019-05-10T07:59:16.147Z,7.67
2019-05-10T08:01:41.959Z,10.03
2019-05-10T08:04:13.081Z,9.65
2019-05-10T08:06:47.469Z,8.20
2019-05-10T08:09:15.350Z,7.15
2019-05-10T08:11:44.927Z,9.48
2019-05-10T08:14:14.646Z,12.13
2019-05-10T08:16:49.827Z,11.43
2019-05-10T08:19:16.963Z,9.55
2019-05-10T08:21:48.678Z,7.73
2019-05-10T08:24:17.759Z,6.92
2019-05-10T08:26:47.323Z,6.97
2019-05-10T08:29:17.204Z,7.90
2019-05-10T08:31:52.851Z,12.17
2019-05-10T08:34:17.900Z,9.23
2019-05-10T08:36:47.882Z,7.05
2019-05-10T08:39:17.522Z,10.25
2019-05-10T08:42:03.717Z,9.48
2019-05-10T08:44:23.922Z,12.78
2019-05-10T08:46:54.295Z,11.03
2019-05-10T08:49:30.913Z,11.93
2019-05-10T08:51:54.913Z,9.25
2019-05-10T08:54:26.419Z,9.83
2019-05-10T08:57:01.088Z,9.43
2019-05-10T08:59:30.786Z,6.17
2019-05-10T09:02:02.190Z,5.60
2019-05-10T09:04:41.656Z,6.65
2019-05-10T09:07:05.448Z,10.98
2019-05-10T09:09:45.475Z,10.18
2019-05-10T09:12:08.900Z,8.83
2019-05-10T09:14:37.264Z,7.65
2019-05-10T09:17:06.746Z,6.78
2019-05-10T09:19:41.021Z,9.33
2019-05-10T09:22:08.091Z,13.32
2019-05-10T09:24:40.985Z,7.92
2019-05-10T09:27:08.909Z,8.98
2019-05-10T09:29:40.117Z,9.38
2019-05-10T09:32:09.626Z,10.68
2019-05-10T09:34:39.150Z,9.80
2019-05-10T09:37:16.052Z,12.18
2019-05-10T09:39:42.522Z,11.08
2019-05-10T09:42:25.052Z,7.75
2019-05-10T09:44:45.625Z,8.30
2019-05-10T09:47:14.386Z,10.50
2019-05-10T09:49:46.762Z,8.30
2019-05-10T09:52:18.703Z,6.08
2019-05-10T09:54:49.206Z,6.55
2019-05-10T09:57:17.624Z,5.37
2019-05-10T09:59:47.156Z,5.22
2019-05-10T10:02:18.958Z,4.50
2019-05-10T10:04:47.844Z,7.37
2019-05-10T10:07:19.025Z,7.33
2019-05-10T10:09:48.528Z,7.22
2019-05-10T10:12:18.104Z,8.30
2019-05-10T10:14:47.724Z,7.10
2019-05-10T10:17:20.404Z,12.17
2019-05-10T10:19:48.677Z,7.65
2019-05-10T10:22:19.836Z,5.93
2019-05-10T10:24:54.756Z,5.72
2019-05-10T10:27:20.690Z,5.37
2019-05-10T10:29:50.206Z,6.75
2019-05-10T10:32:24.532Z,4.20
2019-05-10T10:34:54.843Z,10.23
2019-05-10T10:37:29.040Z,9.43
2019-05-10T10:40:00.695Z,5.15
2019-05-10T10:42:30.041Z,5.67
2019-05-10T10:45:01.165Z,6.95
2019-05-10T10:47:32.300Z,7.63
2019-05-10T10:50:09.072Z,7.25
2019-05-10T10:52:37.612Z,8.95
2019-05-10T10:55:11.326Z,8.75
2019-05-10T10:57:40.745Z,6.85
2019-05-10T11:00:11.340Z,9.05
2019-05-10T11:02:46.702Z,8.20
2019-05-10T11:05:13.234Z,9.00
2019-05-10T11:07:47.211Z,7.75
2019-05-10T11:10:19.009Z,9.00
2019-05-10T11:12:45.471Z,7.33
2019-05-10T11:15:16.420Z,9.15
2019-05-10T11:17:46.328Z,8.85
2019-05-10T11:20:16.020Z,8.08
2019-05-10T11:22:51.671Z,9.97
2019-05-10T11:25:16.671Z,6.45
2019-05-10T11:27:47.642Z,13.93
2019-05-10T11:30:17.537Z,8.08
2019-05-10T11:32:47.091Z,11.88
2019-05-10T11:35:18.962Z,9.00
2019-05-10T11:37:47.757Z,11.20
2019-05-10T11:40:24.535Z,9.48
2019-05-10T11:42:50.902Z,7.67
2019-05-10T11:45:20.900Z,8.13
2019-05-10T11:47:57.134Z,5.67
2019-05-10T11:50:31.517Z,8.10
2019-05-10T11:52:53.116Z,7.97
2019-05-10T11:55:22.544Z,7.87
2019-05-10T11:58:01.914Z,6.97
2019-05-10T12:00:31.895Z,9.20
2019-05-10T12:05:31.968Z,7.72
2019-05-10T12:08:02.192Z,9.93
2019-05-10T12:10:32.149Z,13.20
2019-05-10T12:13:14.844Z,11.55
2019-05-10T12:15:32.982Z,7.22
2019-05-10T12:18:04.894Z,9.73
2019-05-10T12:20:54.204Z,9.78
2019-05-10T12:23:04.780Z,7.08
2019-05-10T12:25:51.387Z,9.25
2019-05-10T12:26:18.268Z,5.58
2019-05-10T12:28:07.224Z,16.62
2019-05-10T12:30:37.270Z,8.53
2019-05-10T12:33:09.871Z,9.38
2019-05-10T12:35:46.860Z,7.22
2019-05-10T12:38:12.070Z,9.43
2019-05-10T12:40:45.885Z,8.18
2019-05-10T12:43:15.493Z,9.80
2019-05-10T12:45:44.998Z,6.55
2019-05-10T12:48:14.450Z,8.60
2019-05-10T12:50:44.451Z,10.95
2019-05-10T12:53:18.535Z,9.55
2019-05-10T12:55:48.174Z,7.67
2019-05-10T12:58:17.694Z,13.63
2019-05-10T13:00:52.356Z,7.78
2019-05-10T13:03:19.609Z,10.43
2019-05-10T13:08:22.432Z,13.15
2019-05-10T13:10:51.957Z,11.22
2019-05-10T13:13:25.535Z,10.97
2019-05-10T13:15:54.286Z,14.60
2019-05-10T13:18:48.151Z,12.43
2019-05-10T13:20:54.930Z,8.88
2019-05-10T13:23:24.376Z,11.37
2019-05-10T13:25:54.029Z,13.85
2019-05-10T13:28:23.663Z,12.87
2019-05-10T13:30:59.962Z,14.83
2019-05-10T13:33:28.908Z,14.13
2019-05-10T13:35:58.414Z,11.35
2019-05-10T13:38:28.187Z,9.00
2019-05-10T13:40:57.659Z,6.05
2019-05-10T13:43:28.370Z,8.33
2019-05-10T13:48:26.950Z,8.93
2019-05-10T13:50:56.519Z,9.15
2019-05-10T13:53:26.120Z,7.15
2019-05-10T13:55:55.693Z,8.88
2019-05-10T13:58:25.147Z,9.80
2019-05-10T14:00:54.720Z,12.93
2019-05-10T14:03:24.253Z,8.38
2019-05-10T14:05:53.855Z,9.68
2019-05-10T14:08:23.259Z,8.50
2019-05-10T14:10:55.898Z,7.90
2019-05-10T14:13:25.449Z,11.35
2019-05-10T14:15:54.952Z,9.68
2019-05-10T14:18:24.424Z,6.03
2019-05-10T14:20:53.978Z,5.53
2019-05-10T14:23:23.435Z,8.87
2019-05-10T14:25:53.078Z,10.58
2019-05-10T14:28:25.283Z,11.80
2019-05-10T14:30:58.924Z,8.70
2019-05-10T14:33:28.565Z,11.78
2019-05-10T14:36:01.102Z,10.65
2019-05-10T14:38:32.078Z,8.68
2019-05-10T14:41:04.057Z,10.53
2019-05-10T14:43:32.763Z,10.03
2019-05-10T14:46:02.342Z,6.80
2019-05-10T14:48:35.305Z,12.17
2019-05-10T14:51:10.588Z,11.18
2019-05-10T14:53:34.306Z,12.98
2019-05-10T14:56:07.859Z,12.93
2019-05-10T14:58:35.114Z,14.00
2019-05-10T15:01:04.644Z,12.50
2019-05-10T15:03:35.239Z,10.13
2019-05-10T15:06:05.292Z,11.68
2019-05-10T15:08:34.929Z,11.43
2019-05-10T15:11:04.485Z,12.33
2019-05-10T15:13:35.296Z,11.75
2019-05-10T15:16:09.710Z,14.53
2019-05-10T15:18:36.447Z,10.10
2019-05-10T15:21:06.216Z,10.80
2019-05-10T15:23:35.688Z,9.63
2019-05-10T15:26:11.662Z,12.45
2019-05-10T15:28:40.190Z,13.20
2019-05-10T15:31:07.766Z,12.65
2019-05-10T15:33:37.292Z,10.82
2019-05-10T15:36:08.437Z,9.48
2019-05-10T15:38:39.946Z,9.55
2019-05-10T15:41:09.124Z,10.20
2019-05-10T15:43:38.522Z,10.30
2019-05-10T15:46:08.038Z,14.45
2019-05-10T15:48:41.672Z,15.10
2019-05-10T15:51:11.054Z,8.70
2019-05-10T15:53:39.810Z,11.28
2019-05-10T15:56:09.395Z,13.32
2019-05-10T15:58:42.437Z,13.67
2019-05-10T16:01:14.162Z,11.50
2019-05-10T16:03:42.758Z,18.82
2019-05-10T16:06:12.246Z,11.50
2019-05-10T16:08:41.674Z,14.60
2019-05-10T16:11:18.513Z,15.72
2019-05-10T16:13:42.388Z,10.00
2019-05-10T16:16:11.877Z,17.77
2019-05-10T16:18:41.755Z,11.20
2019-05-10T16:21:15.281Z,10.72
2019-05-10T16:23:46.533Z,10.72
2019-05-10T16:26:17.394Z,14.40
2019-05-10T16:28:46.390Z,8.40
2019-05-10T16:31:15.924Z,11.12
2019-05-10T16:33:48.141Z,15.23
2019-05-10T16:36:16.581Z,13.68
2019-05-10T16:38:46.103Z,13.90
2019-05-10T16:41:15.605Z,14.05
2019-05-10T16:43:45.061Z,8.35
2019-05-10T16:46:15.113Z,9.23
2019-05-10T16:51:15.381Z,5.75
2019-05-10T16:53:45.948Z,11.85
2019-05-10T16:56:18.819Z,6.03
2019-05-10T16:58:47.544Z,8.15
2019-05-10T17:01:18.573Z,5.97
2019-05-10T17:03:51.063Z,12.45
2019-05-10T17:06:20.149Z,7.58
2019-05-10T17:10:00.161Z,6.37
2019-05-10T17:11:46.545Z,10.33
2019-05-10T17:14:17.351Z,7.62
2019-05-10T17:16:43.807Z,5.83
2019-05-10T17:19:13.286Z,13.00
2019-05-10T17:21:42.763Z,5.30
2019-05-10T17:24:12.236Z,7.72
2019-05-10T17:26:41.687Z,7.43
2019-05-10T17:29:12.769Z,8.63
2019-05-10T17:31:45.453Z,4.58
2019-05-10T17:34:27.715Z,8.95
2019-05-10T17:36:51.739Z,4.55
2019-05-10T17:39:19.045Z,4.35
2019-05-10T17:41:48.441Z,4.55
2019-05-10T17:44:23.179Z,5.47
2019-05-10T17:46:55.578Z,3.85
2019-05-10T17:49:21.639Z,5.58
2019-05-10T17:51:51.097Z,4.85
2019-05-10T17:54:20.570Z,3.92
2019-05-10T17:56:51.737Z,2.93
2019-05-10T17:59:21.238Z,8.20
2019-05-10T18:01:50.712Z,4.53
2019-05-10T18:04:20.431Z,25.85
2019-05-10T18:06:50.614Z,46.67
2019-05-10T18:09:20.147Z,65.22
2019-05-10T18:11:50.126Z,51.17
2019-05-10T18:14:19.850Z,43.83
2019-05-10T18:16:50.134Z,29.20
2019-05-10T18:19:24.814Z,63.00
2019-05-10T18:21:54.891Z,61.98
2019-05-10T18:24:21.991Z,24.85
2019-05-10T18:26:52.656Z,14.10
2019-05-10T18:29:22.118Z,10.38
2019-05-10T18:31:55.914Z,7.78
2019-05-10T18:34:26.277Z,6.22
2019-05-10T18:36:55.011Z,5.53
2019-05-10T18:39:24.546Z,6.78
2019-05-10T18:41:57.847Z,8.43
2019-05-10T18:44:27.368Z,7.55
2019-05-10T18:46:56.918Z,6.90
2019-05-10T18:49:26.436Z,9.23
2019-05-10T18:52:03.904Z,10.72
2019-05-10T18:54:27.236Z,6.67
2019-05-10T18:57:04.696Z,5.97
2019-05-10T18:59:30.520Z,6.83
2019-05-10T19:02:00.000Z,6.75
2019-05-10T19:04:29.520Z,8.88
2019-05-10T19:07:09.579Z,6.15
2019-05-10T19:09:36.117Z,7.05
2019-05-10T19:12:06.007Z,6.97
2019-05-10T19:14:35.854Z,5.72
2019-05-10T19:17:09.498Z,10.23
2019-05-10T19:19:39.931Z,9.13
2019-05-10T19:22:08.958Z,8.73
2019-05-10T19:24:39.301Z,6.72
2019-05-10T19:27:09.345Z,7.20
2019-05-10T19:29:45.370Z,5.75
2019-05-10T19:32:17.310Z,5.70
2019-05-10T19:34:42.241Z,8.25
2019-05-10T19:39:40.477Z,11.28
2019-05-10T19:42:09.963Z,6.50
2019-05-10T19:44:40.345Z,5.12
2019-05-10T19:47:11.166Z,7.10
2019-05-10T19:49:45.944Z,8.10
2019-05-10T19:52:12.958Z,6.00
2019-05-10T19:54:42.536Z,7.42
2019-05-10T19:57:16.204Z,11.48
2019-05-10T19:59:44.057Z,10.65
2019-05-10T20:02:14.287Z,12.10
2019-05-10T20:04:43.939Z,15.40
2019-05-10T20:07:14.463Z,9.38
2019-05-10T20:09:44.035Z,8.13
2019-05-10T20:12:13.537Z,10.08
2019-05-10T20:14:43.107Z,12.15
2019-05-10T20:17:14.513Z,10.67
2019-05-10T20:19:43.826Z,12.45
2019-05-10T20:22:13.419Z,8.15
2019-05-10T20:24:43.999Z,7.03
2019-05-10T20:27:15.063Z,9.08
2019-05-10T20:29:44.568Z,6.40
2019-05-10T20:32:14.167Z,6.65
2019-05-10T20:34:43.678Z,6.42
2019-05-10T20:37:13.223Z,8.33
2019-05-10T20:39:42.718Z,8.30
2019-05-10T20:42:13.810Z,7.97
2019-05-10T20:44:43.308Z,8.60
2019-05-10T20:47:13.388Z,10.43
2019-05-10T20:49:42.797Z,6.63
2019-05-10T20:52:12.516Z,10.90
2019-05-10T20:54:42.784Z,9.40
2019-05-10T20:57:12.418Z,10.10
2019-05-10T20:59:41.868Z,9.68
2019-05-10T21:02:11.377Z,11.63
2019-05-10T21:04:40.945Z,12.90
2019-05-10T21:07:10.576Z,16.45
2019-05-10T21:09:40.159Z,9.73
2019-05-10T21:12:09.625Z,8.68
2019-05-10T21:14:39.168Z,12.40
2019-05-10T21:17:08.725Z,10.57
2019-05-10T21:19:38.280Z,12.70
2019-05-10T21:22:08.009Z,10.03
2019-05-10T21:24:37.558Z,8.85
2019-05-10T21:27:07.094Z,11.67
2019-05-10T21:29:36.549Z,9.73
2019-05-10T21:32:06.434Z,13.18
2019-05-10T21:34:36.014Z,13.05
2019-05-10T21:37:05.550Z,9.35
2019-05-10T21:39:35.146Z,11.33
2019-05-10T21:42:04.882Z,12.65
2019-05-10T21:44:34.336Z,8.55
2019-05-10T21:47:03.768Z,8.20
2019-05-10T21:49:34.334Z,12.00
2019-05-10T21:52:03.859Z,8.83
2019-05-10T21:54:33.498Z,12.60
2019-05-10T21:57:04.022Z,10.88
2019-05-10T21:59:35.095Z,12.07
2019-05-10T22:02:04.740Z,13.13
2019-05-10T22:04:34.264Z,15.85
2019-05-10T22:07:03.758Z,12.27
2019-05-10T22:09:33.228Z,13.53
2019-05-10T22:12:02.991Z,13.67
2019-05-10T22:14:37.067Z,13.80
2019-05-10T22:17:06.699Z,16.25
2019-05-10T22:19:36.133Z,17.05
2019-05-10T22:22:06.638Z,12.70
2019-05-10T22:24:36.091Z,12.00
2019-05-10T22:27:05.731Z,15.18
2019-05-10T22:29:35.258Z,14.25
2019-05-10T22:32:04.849Z,15.93
2019-05-10T22:34:34.294Z,11.65
2019-05-10T22:37:03.976Z,15.03
2019-05-10T22:39:33.403Z,15.32
2019-05-10T22:42:02.859Z,14.90
2019-05-10T22:44:32.316Z,14.63
2019-05-10T22:47:01.838Z,15.83
2019-05-10T22:49:31.379Z,18.67
2019-05-10T22:52:00.901Z,15.93
2019-05-10T22:54:30.369Z,16.70
2019-05-10T22:56:59.927Z,16.20
2019-05-10T22:59:29.462Z,16.17
2019-05-10T23:01:58.983Z,16.30
2019-05-10T23:04:28.429Z,16.87
2019-05-10T23:06:58.000Z,15.93
2019-05-10T23:09:28.619Z,14.38
2019-05-10T23:11:58.218Z,14.73
2019-05-10T23:14:27.672Z,17.92
2019-05-10T23:16:57.170Z,18.45
2019-05-10T23:19:26.679Z,20.57
2019-05-10T23:21:56.283Z,18.45
2019-05-10T23:24:39.222Z,21.48
2019-05-10T23:27:09.858Z,24.43
2019-05-10T23:29:39.380Z,22.87
2019-05-10T23:32:08.858Z,22.87
2019-05-10T23:34:38.398Z,22.20
2019-05-10T23:37:07.861Z,26.53
2019-05-10T23:39:40.980Z,23.12
2019-05-10T23:44:31.637Z,27.22
2019-05-10T23:47:01.207Z,28.87
2019-05-10T23:49:30.731Z,19.82
2019-05-10T23:52:00.280Z,22.05
2019-05-10T23:54:29.781Z,24.37
2019-05-10T23:56:59.301Z,30.40
2019-05-10T23:59:28.821Z,25.77
